Time;durP1;ratioP1;P1;durP2;ratioP2;P2;SDS_P1;SDS_P2;PMS_P1;PMS_P2;Temp;Humidity;BMP_temperature;BMP_pressure;BME280_temperature;BME280_humidity;BME280_pressure;Samples;Min_cycle;Max_cycle;Signal;HPM_P1;HPM_P2
2023/06/22 00:00:47;;;;;;;38.03;33.63;;;;;;;;;;5011757;28;20395;-73
2023/06/22 00:03:13;;;;;;;36.97;33.08;;;;;;;;;;5014938;28;20081;-73
2023/06/22 00:05:39;;;;;;;38.63;34.42;;;;;;;;;;5014723;28;20081;-74
2023/06/22 00:08:05;;;;;;;39.30;33.08;;;;;;;;;;5013550;28;20087;-74
2023/06/22 00:10:31;;;;;;;35.30;31.60;;;;;;;;;;5012897;28;20049;-73
2023/06/22 00:12:57;;;;;;;37.13;33.13;;;;;;;;;;5013930;28;20046;-73
2023/06/22 00:15:24;;;;;;;39.33;34.53;;;;;;;;;;5015933;28;20042;-74
2023/06/22 00:17:50;;;;;;;39.25;34.65;;;;;;;;;;5014204;28;20384;-73
2023/06/22 00:20:17;;;;;;;41.15;36.13;;;;;;;;;;5014005;28;20042;-74
2023/06/22 00:22:44;;;;;;;38.80;33.33;;;;;;;;;;4981035;28;20081;-74
2023/06/22 00:25:10;;;;;;;38.47;34.15;;;;;;;;;;4999221;28;20130;-74
2023/06/22 00:27:37;;;;;;;46.17;35.13;;;;;;;;;;4992411;28;20050;-74
2023/06/22 00:30:03;;;;;;;40.72;35.83;;;;;;;;;;5002666;28;20047;-74
2023/06/22 00:32:29;;;;;;;39.33;35.13;;;;;;;;;;5014960;28;20121;-74
2023/06/22 00:34:55;;;;;;;38.80;34.75;;;;;;;;;;5001878;28;20043;-73
2023/06/22 00:37:25;;;;;;;39.45;35.42;;;;;;;;;;5013964;28;20050;-73
2023/06/22 00:39:51;;;;;;;39.53;35.42;;;;;;;;;;5001033;28;20132;-73
2023/06/22 00:42:18;;;;;;;41.95;37.50;;;;;;;;;;5015564;28;20319;-74
2023/06/22 00:44:44;;;;;;;43.20;37.40;;;;;;;;;;5011148;28;20099;-74
2023/06/22 00:47:13;;;;;;;40.05;35.90;;;;;;;;;;5012186;28;20054;-73
2023/06/22 00:49:39;;;;;;;40.80;36.60;;;;;;;;;;5012535;28;20446;-74
2023/06/22 00:52:09;;;;;;;38.80;34.58;;;;;;;;;;5014085;28;20050;-74
2023/06/22 00:54:35;;;;;;;37.25;33.05;;;;;;;;;;5012672;28;20053;-74
2023/06/22 00:57:02;;;;;;;37.83;33.88;;;;;;;;;;5014613;28;20057;-73
2023/06/22 00:59:28;;;;;;;37.83;33.97;;;;;;;;;;5014604;28;20038;-74
2023/06/22 01:01:55;;;;;;;39.63;35.53;;;;;;;;;;5010930;28;20050;-73
2023/06/22 01:04:34;;;;;;;39.70;35.53;;;;;;;;;;5013791;28;20096;-74
2023/06/22 01:07:07;;;;;;;41.00;36.65;;;;;;;;;;5012884;28;20066;-73
2023/06/22 01:09:38;;;;;;;39.80;35.60;;;;;;;;;;5013371;28;20060;-73
2023/06/22 01:12:06;;;;;;;38.63;34.50;;;;;;;;;;5010358;28;20042;-74
2023/06/22 01:14:53;;;;;;;41.30;35.53;;;;;;;;;;5012893;28;20047;-74
2023/06/22 01:17:20;;;;;;;39.63;35.50;;;;;;;;;;5010625;28;20050;-73
2023/06/22 01:19:47;;;;;;;38.72;34.83;;;;;;;;;;4994469;28;20497;-72
2023/06/22 01:22:15;;;;;;;39.58;35.38;;;;;;;;;;5012652;28;20119;-73
2023/06/22 01:24:50;;;;;;;38.22;34.28;;;;;;;;;;5011592;28;20397;-74
2023/06/22 01:27:34;;;;;;;42.90;38.08;;;;;;;;;;4998551;28;20050;-73
2023/06/22 01:30:02;;;;;;;39.28;35.35;;;;;;;;;;5011378;28;20116;-72
2023/06/22 01:32:33;;;;;;;41.05;36.65;;;;;;;;;;5013776;28;20042;-73
2023/06/22 01:35:04;;;;;;;41.15;36.83;;;;;;;;;;5013842;28;20408;-73
2023/06/22 01:37:32;;;;;;;46.33;41.22;;;;;;;;;;5014656;28;20522;-72
2023/06/22 01:39:58;;;;;;;46.80;41.83;;;;;;;;;;5013909;28;20046;-72
2023/06/22 01:42:25;;;;;;;46.42;41.47;;;;;;;;;;5014012;28;20053;-72
2023/06/22 01:44:52;;;;;;;49.15;43.10;;;;;;;;;;5014906;28;20042;-73
2023/06/22 01:47:19;;;;;;;50.75;44.20;;;;;;;;;;5012776;28;20496;-73
2023/06/22 01:49:45;;;;;;;46.15;41.42;;;;;;;;;;5013403;28;20038;-74
2023/06/22 01:52:11;;;;;;;48.10;42.95;;;;;;;;;;5012375;28;20042;-73
2023/06/22 01:54:38;;;;;;;47.10;41.95;;;;;;;;;;5013703;28;20081;-74
2023/06/22 01:57:05;;;;;;;45.08;40.42;;;;;;;;;;5014150;28;20622;-73
2023/06/22 01:59:37;;;;;;;45.20;39.72;;;;;;;;;;5013827;28;20052;-74
2023/06/22 02:02:13;;;;;;;42.58;38.00;;;;;;;;;;5012577;28;20459;-73
2023/06/22 02:04:42;;;;;;;45.15;40.50;;;;;;;;;;5010597;28;20079;-73
2023/06/22 02:07:13;;;;;;;44.78;38.25;;;;;;;;;;5010803;28;20057;-73
2023/06/22 02:09:39;;;;;;;42.60;37.55;;;;;;;;;;5010220;28;20069;-73
2023/06/22 02:12:06;;;;;;;44.25;39.35;;;;;;;;;;5010363;28;20053;-72
2023/06/22 02:14:32;;;;;;;46.20;41.28;;;;;;;;;;5012250;28;20404;-73
2023/06/22 02:17:01;;;;;;;36.97;33.25;;;;;;;;;;5012498;28;20049;-73
2023/06/22 02:19:27;;;;;;;35.33;31.67;;;;;;;;;;5005166;28;20043;-73
2023/06/22 02:21:53;;;;;;;33.58;30.08;;;;;;;;;;5009778;28;20042;-73
2023/06/22 02:24:23;;;;;;;37.92;33.92;;;;;;;;;;5010018;28;20097;-73
2023/06/22 02:26:49;;;;;;;38.38;34.47;;;;;;;;;;5007479;28;20135;-73
2023/06/22 02:29:15;;;;;;;40.58;36.13;;;;;;;;;;5010936;28;20046;-73
2023/06/22 02:31:41;;;;;;;38.70;34.33;;;;;;;;;;5011632;28;20381;-73
2023/06/22 02:34:07;;;;;;;33.03;29.60;;;;;;;;;;5011230;28;20044;-72
2023/06/22 02:36:33;;;;;;;27.80;24.98;;;;;;;;;;4998634;28;20107;-73
2023/06/22 02:39:01;;;;;;;31.98;28.58;;;;;;;;;;5012345;28;20045;-73
2023/06/22 02:41:27;;;;;;;30.90;27.80;;;;;;;;;;5015165;28;20057;-73
2023/06/22 02:43:53;;;;;;;30.77;27.65;;;;;;;;;;5013802;28;20050;-71
2023/06/22 02:46:19;;;;;;;30.17;27.20;;;;;;;;;;5017999;28;20042;-73
2023/06/22 02:48:45;;;;;;;31.83;28.55;;;;;;;;;;5019799;28;20467;-73
2023/06/22 02:51:11;;;;;;;36.33;32.50;;;;;;;;;;5018142;28;20038;-73
2023/06/22 02:53:37;;;;;;;40.85;36.45;;;;;;;;;;5013896;28;20508;-73
2023/06/22 02:56:07;;;;;;;39.65;35.58;;;;;;;;;;4999673;28;20104;-73
2023/06/22 02:58:38;;;;;;;39.75;35.70;;;;;;;;;;5010792;28;20042;-74
2023/06/22 03:01:04;;;;;;;40.30;35.38;;;;;;;;;;5013164;28;20050;-74
2023/06/22 03:03:30;;;;;;;40.45;36.33;;;;;;;;;;5012930;28;20109;-73
2023/06/22 03:05:57;;;;;;;38.83;34.75;;;;;;;;;;5018909;28;20038;-73
2023/06/22 03:08:23;;;;;;;35.85;32.05;;;;;;;;;;5016724;28;20053;-73
2023/06/22 03:10:49;;;;;;;33.28;30.00;;;;;;;;;;5016594;28;20038;-73
2023/06/22 03:13:15;;;;;;;35.58;31.88;;;;;;;;;;5017810;28;20068;-73
2023/06/22 03:15:41;;;;;;;31.55;28.15;;;;;;;;;;5019564;28;20048;-73
2023/06/22 03:18:07;;;;;;;29.45;26.35;;;;;;;;;;5017144;28;20133;-73
2023/06/22 03:20:33;;;;;;;36.38;32.63;;;;;;;;;;5012822;28;20046;-73
2023/06/22 03:23:00;;;;;;;32.75;29.65;;;;;;;;;;5016882;28;20096;-73
2023/06/22 03:25:26;;;;;;;29.90;27.10;;;;;;;;;;5016567;28;20046;-73
2023/06/22 03:27:52;;;;;;;31.33;28.33;;;;;;;;;;5018349;28;20042;-74
2023/06/22 03:30:18;;;;;;;44.38;28.85;;;;;;;;;;5016087;28;20408;-73
2023/06/22 03:32:44;;;;;;;29.73;26.60;;;;;;;;;;5016249;28;20183;-74
2023/06/22 03:35:13;;;;;;;30.10;26.80;;;;;;;;;;5017012;28;20118;-73
2023/06/22 03:37:39;;;;;;;25.17;22.75;;;;;;;;;;5018905;28;20045;-73
2023/06/22 03:40:05;;;;;;;26.80;24.10;;;;;;;;;;5017472;28;20042;-73
2023/06/22 03:42:31;;;;;;;26.52;23.90;;;;;;;;;;5017654;28;20057;-73
2023/06/22 03:44:57;;;;;;;26.10;23.60;;;;;;;;;;5016362;28;20041;-72
2023/06/22 03:47:24;;;;;;;24.55;22.05;;;;;;;;;;5017131;28;20057;-73
2023/06/22 03:49:50;;;;;;;27.40;24.73;;;;;;;;;;5015709;28;20053;-74
2023/06/22 03:52:16;;;;;;;25.13;22.67;;;;;;;;;;5001786;28;20470;-73
2023/06/22 03:54:42;;;;;;;24.20;21.80;;;;;;;;;;5015809;28;20045;-73
2023/06/22 03:57:08;;;;;;;27.40;24.48;;;;;;;;;;5007250;28;20075;-72
2023/06/22 03:59:34;;;;;;;31.70;28.38;;;;;;;;;;5010478;28;20408;-73
2023/06/22 04:02:00;;;;;;;38.63;34.63;;;;;;;;;;5015206;28;20062;-73
2023/06/22 04:04:27;;;;;;;39.08;35.10;;;;;;;;;;5008611;28;20417;-73
2023/06/22 04:06:53;;;;;;;38.88;34.67;;;;;;;;;;5011680;28;20096;-72
2023/06/22 04:09:21;;;;;;;41.40;36.92;;;;;;;;;;5006755;28;20057;-74
2023/06/22 04:11:47;;;;;;;36.38;32.72;;;;;;;;;;5014249;28;20045;-74
2023/06/22 04:14:13;;;;;;;41.42;37.03;;;;;;;;;;5014390;28;20437;-72
2023/06/22 04:16:39;;;;;;;41.08;36.53;;;;;;;;;;5017979;28;20037;-73
2023/06/22 04:19:05;;;;;;;39.70;35.42;;;;;;;;;;5011574;28;20061;-73
2023/06/22 04:21:33;;;;;;;37.92;33.78;;;;;;;;;;5007907;28;20439;-74
2023/06/22 04:23:59;;;;;;;47.67;38.63;;;;;;;;;;5010256;28;20189;-73
2023/06/22 04:26:25;;;;;;;43.42;38.83;;;;;;;;;;5014705;28;20046;-73
2023/06/22 04:28:55;;;;;;;41.05;36.60;;;;;;;;;;5014699;28;20546;-73
2023/06/22 04:31:21;;;;;;;45.45;40.80;;;;;;;;;;5016169;28;20491;-72
2023/06/22 04:33:47;;;;;;;47.30;42.13;;;;;;;;;;5016369;28;20413;-73
2023/06/22 04:36:13;;;;;;;48.97;44.00;;;;;;;;;;5017622;28;20411;-73
2023/06/22 04:38:40;;;;;;;52.47;46.75;;;;;;;;;;5017698;28;20400;-74
2023/06/22 04:41:06;;;;;;;55.00;46.22;;;;;;;;;;5010632;28;20050;-73
2023/06/22 04:43:34;;;;;;;52.60;46.90;;;;;;;;;;5001133;28;20050;-74
2023/06/22 04:46:03;;;;;;;52.03;46.63;;;;;;;;;;5017144;28;20038;-73
2023/06/22 04:48:33;;;;;;;53.58;47.88;;;;;;;;;;5017222;28;20551;-73
2023/06/22 04:51:03;;;;;;;51.58;46.25;;;;;;;;;;5015285;28;20042;-74
2023/06/22 04:53:29;;;;;;;51.28;45.97;;;;;;;;;;5011593;28;20054;-74
2023/06/22 04:55:55;;;;;;;50.13;44.83;;;;;;;;;;5014095;28;20057;-73
2023/06/22 04:58:21;;;;;;;48.85;43.75;;;;;;;;;;5016331;28;20092;-73
2023/06/22 05:00:51;;;;;;;49.35;43.97;;;;;;;;;;5012903;28;20408;-74
2023/06/22 05:03:18;;;;;;;49.13;43.88;;;;;;;;;;5015450;28;20068;-74
2023/06/22 05:05:44;;;;;;;47.80;42.72;;;;;;;;;;5013795;28;20053;-73
2023/06/22 05:08:10;;;;;;;46.60;41.80;;;;;;;;;;5009387;28;20053;-73
2023/06/22 05:10:36;;;;;;;49.47;44.05;;;;;;;;;;5013566;28;20050;-74
2023/06/22 05:13:02;;;;;;;49.25;43.95;;;;;;;;;;5012392;28;20050;-73
2023/06/22 05:15:30;;;;;;;46.72;41.72;;;;;;;;;;5006286;28;20463;-74
2023/06/22 05:17:58;;;;;;;48.08;43.08;;;;;;;;;;5013743;28;20085;-73
2023/06/22 05:20:24;;;;;;;49.20;44.00;;;;;;;;;;5009669;28;20117;-74
2023/06/22 05:22:50;;;;;;;46.85;41.90;;;;;;;;;;5009507;28;20043;-73
2023/06/22 05:25:16;;;;;;;52.33;45.75;;;;;;;;;;5011306;28;20057;-74
2023/06/22 05:27:43;;;;;;;49.20;43.40;;;;;;;;;;5007604;28;20038;-73
2023/06/22 05:30:11;;;;;;;45.55;40.58;;;;;;;;;;5015027;28;20060;-73
2023/06/22 05:32:37;;;;;;;46.13;40.20;;;;;;;;;;5015716;28;20049;-74
2023/06/22 05:35:04;;;;;;;42.42;38.03;;;;;;;;;;5016820;28;20050;-74
2023/06/22 05:37:30;;;;;;;42.53;38.13;;;;;;;;;;5014599;28;20133;-73
2023/06/22 05:39:57;;;;;;;41.22;36.92;;;;;;;;;;5014005;28;20113;-72
2023/06/22 05:42:25;;;;;;;40.10;36.00;;;;;;;;;;5013475;28;20100;-73
2023/06/22 05:44:51;;;;;;;37.92;34.15;;;;;;;;;;5010556;28;20104;-73
2023/06/22 05:47:17;;;;;;;38.42;34.63;;;;;;;;;;5015763;28;20050;-74
2023/06/22 05:49:43;;;;;;;37.08;33.38;;;;;;;;;;5017196;28;20045;-74
2023/06/22 05:52:09;;;;;;;35.20;31.70;;;;;;;;;;5012312;28;20109;-74
2023/06/22 05:54:35;;;;;;;35.90;32.33;;;;;;;;;;5015066;28;20077;-74
2023/06/22 05:57:02;;;;;;;35.15;31.60;;;;;;;;;;5013001;28;20050;-72
2023/06/22 05:59:28;;;;;;;34.40;30.90;;;;;;;;;;5012192;28;20048;-73
2023/06/22 06:01:54;;;;;;;32.88;29.58;;;;;;;;;;5012381;28;20130;-72
2023/06/22 06:04:20;;;;;;;32.33;29.02;;;;;;;;;;5010560;28;20134;-73
2023/06/22 06:06:47;;;;;;;32.35;29.00;;;;;;;;;;5003164;28;20103;-75
2023/06/22 06:09:13;;;;;;;31.73;28.48;;;;;;;;;;5015446;28;20101;-74
2023/06/22 06:11:39;;;;;;;30.35;27.27;;;;;;;;;;5009994;28;20099;-74
2023/06/22 06:14:06;;;;;;;29.50;26.42;;;;;;;;;;4996457;28;20096;-73
2023/06/22 06:16:32;;;;;;;29.17;26.30;;;;;;;;;;5012250;28;20059;-73
2023/06/22 06:18:58;;;;;;;29.05;26.25;;;;;;;;;;5016569;28;20041;-74
2023/06/22 06:21:24;;;;;;;28.83;25.90;;;;;;;;;;5019479;28;20049;-74
2023/06/22 06:23:50;;;;;;;27.95;25.23;;;;;;;;;;5020612;28;20046;-74
2023/06/22 06:26:17;;;;;;;26.50;23.98;;;;;;;;;;5020630;28;20565;-75
2023/06/22 06:28:46;;;;;;;25.35;22.75;;;;;;;;;;5019709;28;20530;-73
2023/06/22 06:31:16;;;;;;;23.38;21.00;;;;;;;;;;5022516;28;20089;-73
2023/06/22 06:33:43;;;;;;;22.55;20.45;;;;;;;;;;5026541;28;20117;-73
2023/06/22 06:36:09;;;;;;;21.23;19.13;;;;;;;;;;5017279;28;20045;-74
2023/06/22 06:38:35;;;;;;;20.70;18.77;;;;;;;;;;5009778;28;20069;-73
2023/06/22 06:41:01;;;;;;;21.45;19.45;;;;;;;;;;5009602;28;20054;-73
2023/06/22 06:43:27;;;;;;;20.25;18.35;;;;;;;;;;5030718;28;20050;-73
2023/06/22 06:45:53;;;;;;;19.85;17.92;;;;;;;;;;4999803;28;20073;-73
2023/06/22 06:48:19;;;;;;;18.35;16.55;;;;;;;;;;5018789;28;20038;-74
2023/06/22 06:50:45;;;;;;;19.25;16.70;;;;;;;;;;5018854;28;20080;-74
2023/06/22 06:53:11;;;;;;;17.33;15.60;;;;;;;;;;5016520;28;20161;-70
2023/06/22 06:55:37;;;;;;;18.75;16.85;;;;;;;;;;5011812;28;20041;-70
2023/06/22 06:58:07;;;;;;;15.82;14.30;;;;;;;;;;5015357;28;20080;-70
2023/06/22 07:00:33;;;;;;;17.52;15.88;;;;;;;;;;5015795;28;20096;-70
2023/06/22 07:02:59;;;;;;;16.17;14.48;;;;;;;;;;5014736;28;20061;-70
2023/06/22 07:05:25;;;;;;;15.82;14.25;;;;;;;;;;5013188;28;20050;-70
2023/06/22 07:07:53;;;;;;;16.15;14.40;;;;;;;;;;5014032;28;20054;-70
2023/06/22 07:10:19;;;;;;;17.65;14.63;;;;;;;;;;5015398;28;20128;-70
2023/06/22 07:12:45;;;;;;;14.85;13.35;;;;;;;;;;5012437;28;20053;-71
2023/06/22 07:15:12;;;;;;;20.63;12.15;;;;;;;;;;5011083;28;20048;-71
2023/06/22 07:17:41;;;;;;;17.52;13.00;;;;;;;;;;5011376;28;20084;-70
2023/06/22 07:20:12;;;;;;;13.43;12.02;;;;;;;;;;5015361;28;20125;-69
2023/06/22 07:22:38;;;;;;;13.25;11.88;;;;;;;;;;5014464;28;20044;-70
2023/06/22 07:25:08;;;;;;;13.90;12.50;;;;;;;;;;5014797;28;20496;-70
2023/06/22 07:27:37;;;;;;;21.63;12.43;;;;;;;;;;5014618;28;20052;-71
2023/06/22 07:30:04;;;;;;;16.58;12.77;;;;;;;;;;5013779;28;20054;-71
2023/06/22 07:32:30;;;;;;;17.30;11.20;;;;;;;;;;5013576;28;20054;-72
2023/06/22 07:34:56;;;;;;;13.65;11.52;;;;;;;;;;5011807;28;20197;-70
2023/06/22 07:37:22;;;;;;;19.50;10.65;;;;;;;;;;5014645;28;20049;-69
2023/06/22 07:39:50;;;;;;;16.15;10.85;;;;;;;;;;5015994;28;20060;-70
2023/06/22 07:42:18;;;;;;;14.02;11.45;;;;;;;;;;5016445;28;20050;-69
2023/06/22 07:44:44;;;;;;;20.48;10.60;;;;;;;;;;5014675;28;20496;-71
2023/06/22 07:47:10;;;;;;;14.18;11.20;;;;;;;;;;5015090;28;20054;-70
2023/06/22 07:49:37;;;;;;;17.30;10.38;;;;;;;;;;5014637;28;20050;-70
2023/06/22 07:52:03;;;;;;;21.10;10.77;;;;;;;;;;5014407;28;20052;-69
2023/06/22 07:54:29;;;;;;;17.42;9.05;;;;;;;;;;5010182;28;20448;-71
2023/06/22 07:56:55;;;;;;;11.38;9.73;;;;;;;;;;5014840;28;20085;-70
2023/06/22 07:59:21;;;;;;;11.20;9.30;;;;;;;;;;5013447;28;20054;-69
2023/06/22 08:01:49;;;;;;;10.18;8.65;;;;;;;;;;5014545;28;20416;-70
2023/06/22 08:04:15;;;;;;;9.57;8.27;;;;;;;;;;5012171;28;20072;-70
2023/06/22 08:06:41;;;;;;;11.60;9.07;;;;;;;;;;5012143;28;20046;-70
2023/06/22 08:09:08;;;;;;;14.30;8.88;;;;;;;;;;5015002;28;20053;-71
2023/06/22 08:11:35;;;;;;;11.50;7.85;;;;;;;;;;5015586;28;20077;-72
2023/06/22 08:14:01;;;;;;;13.95;8.55;;;;;;;;;;5013056;28;20053;-69
2023/06/22 08:16:27;;;;;;;12.45;9.65;;;;;;;;;;5014712;28;20180;-71
2023/06/22 08:18:54;;;;;;;14.38;8.90;;;;;;;;;;5014695;28;20038;-69
2023/06/22 08:21:20;;;;;;;23.23;8.57;;;;;;;;;;5014342;28;20385;-70
2023/06/22 08:23:46;;;;;;;26.65;9.30;;;;;;;;;;5015113;28;20057;-69
2023/06/22 08:26:12;;;;;;;13.77;10.25;;;;;;;;;;5012973;28;20448;-69
2023/06/22 08:28:38;;;;;;;10.35;8.23;;;;;;;;;;5012900;28;20076;-69
2023/06/22 08:31:05;;;;;;;21.85;10.00;;;;;;;;;;5013723;28;20447;-70
2023/06/22 08:33:31;;;;;;;16.60;9.85;;;;;;;;;;5011763;28;20076;-70
2023/06/22 08:35:58;;;;;;;18.50;8.77;;;;;;;;;;4994504;28;20064;-69
2023/06/22 08:38:25;;;;;;;11.20;9.18;;;;;;;;;;5007165;28;20057;-68
2023/06/22 08:40:51;;;;;;;12.18;9.15;;;;;;;;;;5011501;28;20480;-69
2023/06/22 08:43:17;;;;;;;12.10;9.73;;;;;;;;;;5014266;28;20480;-69
2023/06/22 08:45:43;;;;;;;13.10;9.65;;;;;;;;;;5011923;28;20046;-69
2023/06/22 08:48:09;;;;;;;13.30;10.65;;;;;;;;;;5026039;28;20107;-69
2023/06/22 08:50:35;;;;;;;11.35;9.57;;;;;;;;;;5018942;28;20045;-69
2023/06/22 08:53:01;;;;;;;11.75;9.95;;;;;;;;;;5015590;28;20046;-69
2023/06/22 08:55:27;;;;;;;12.13;9.50;;;;;;;;;;5012442;28;20053;-69
2023/06/22 08:57:53;;;;;;;12.05;10.00;;;;;;;;;;5009322;28;20104;-69
2023/06/22 09:00:20;;;;;;;13.40;9.07;;;;;;;;;;5011559;28;20095;-70
2023/06/22 09:02:46;;;;;;;17.40;10.40;;;;;;;;;;5014362;28;20057;-72
2023/06/22 09:05:13;;;;;;;13.77;10.35;;;;;;;;;;5013755;28;20145;-70
2023/06/22 09:07:39;;;;;;;12.52;10.13;;;;;;;;;;5005324;28;20057;-70
2023/06/22 09:10:05;;;;;;;46.97;12.45;;;;;;;;;;5009638;28;20165;-69
2023/06/22 09:12:32;;;;;;;24.10;11.13;;;;;;;;;;4996030;28;20073;-69
2023/06/22 09:15:00;;;;;;;26.05;10.82;;;;;;;;;;5009016;28;20175;-70
2023/06/22 09:17:26;;;;;;;17.85;10.48;;;;;;;;;;5011616;28;20088;-69
2023/06/22 09:19:52;;;;;;;42.90;11.95;;;;;;;;;;5010147;28;20061;-69
2023/06/22 09:22:18;;;;;;;16.23;10.75;;;;;;;;;;5011606;28;20062;-70
2023/06/22 09:24:44;;;;;;;14.02;10.63;;;;;;;;;;5011790;28;20056;-72
2023/06/22 09:27:10;;;;;;;11.38;9.82;;;;;;;;;;5006899;28;20042;-69
2023/06/22 09:29:36;;;;;;;13.88;9.77;;;;;;;;;;5000837;28;20461;-70
2023/06/22 09:32:02;;;;;;;17.80;9.80;;;;;;;;;;5013348;28;20058;-70
2023/06/22 09:34:31;;;;;;;16.90;11.75;;;;;;;;;;5045780;22;20063;-87
2023/06/22 09:37:00;;;;;;;14.85;10.85;;;;;;;;;;5026785;28;20073;-86
2023/06/22 09:39:26;;;;;;;22.65;11.02;;;;;;;;;;5026010;28;20057;-85
2023/06/22 09:41:52;;;;;;;14.75;11.50;;;;;;;;;;5024234;28;20045;-86
2023/06/22 09:44:19;;;;;;;14.70;11.10;;;;;;;;;;5029515;28;20174;-86
2023/06/22 09:46:45;;;;;;;16.20;12.35;;;;;;;;;;5026748;28;20037;-85
2023/06/22 09:49:11;;;;;;;15.90;10.77;;;;;;;;;;5038788;28;20068;-86
2023/06/22 09:51:37;;;;;;;37.35;11.45;;;;;;;;;;5016229;28;20050;-86
2023/06/22 09:54:03;;;;;;;16.83;10.93;;;;;;;;;;5027303;28;20484;-86
2023/06/22 09:56:30;;;;;;;14.82;10.80;;;;;;;;;;5012053;28;20081;-85
2023/06/22 09:58:56;;;;;;;13.95;11.30;;;;;;;;;;5016536;28;20057;-85
2023/06/22 10:01:23;;;;;;;13.57;11.20;;;;;;;;;;5018202;28;20069;-87
2023/06/22 10:03:49;;;;;;;15.90;10.45;;;;;;;;;;5046276;28;20057;-87
2023/06/22 10:06:15;;;;;;;13.77;11.15;;;;;;;;;;5022465;28;20053;-88
2023/06/22 10:08:42;;;;;;;18.90;11.32;;;;;;;;;;5021456;28;20092;-85
2023/06/22 10:11:11;;;;;;;18.55;12.43;;;;;;;;;;4995687;28;20054;-87
2023/06/22 10:13:37;;;;;;;12.48;10.98;;;;;;;;;;5027583;28;20113;-86
2023/06/22 10:16:03;;;;;;;26.70;12.00;;;;;;;;;;5026596;28;20362;-86
2023/06/22 10:18:30;;;;;;;66.70;13.90;;;;;;;;;;5023489;28;20052;-88
2023/06/22 10:20:56;;;;;;;18.17;11.70;;;;;;;;;;5027282;28;20077;-87
2023/06/22 10:23:23;;;;;;;15.82;12.05;;;;;;;;;;5037345;28;20094;-88
2023/06/22 10:25:49;;;;;;;14.38;11.82;;;;;;;;;;5007561;28;20081;-87
2023/06/22 10:28:15;;;;;;;15.70;12.02;;;;;;;;;;5025609;28;20053;-87
2023/06/22 10:30:42;;;;;;;17.20;12.27;;;;;;;;;;5025679;28;20034;-87
2023/06/22 10:33:12;;;;;;;15.18;12.40;;;;;;;;;;5048674;28;20049;-86
2023/06/22 10:35:38;;;;;;;13.48;11.95;;;;;;;;;;5029788;28;20053;-86
2023/06/22 10:38:04;;;;;;;16.88;11.40;;;;;;;;;;5028860;28;20056;-86
2023/06/22 10:40:30;;;;;;;15.35;13.20;;;;;;;;;;5025140;28;20038;-88
2023/06/22 10:42:57;;;;;;;13.80;11.02;;;;;;;;;;5025288;28;20104;-86
2023/06/22 10:45:23;;;;;;;13.80;10.55;;;;;;;;;;5008101;28;20049;-85
2023/06/22 10:47:49;;;;;;;15.60;11.30;;;;;;;;;;5025803;28;20052;-85
2023/06/22 10:50:15;;;;;;;13.65;11.68;;;;;;;;;;5023774;28;20481;-87
2023/06/22 10:52:41;;;;;;;17.98;13.30;;;;;;;;;;5025664;28;20046;-87
2023/06/22 10:55:28;;;;;;;15.38;12.18;;;;;;;;;;5024065;28;20042;-87
2023/06/22 10:58:04;;;;;;;14.75;10.43;;;;;;;;;;5020243;28;20050;-87
2023/06/22 11:01:03;;;;;;;17.38;11.75;;;;;;;;;;5026345;28;20566;-88
2023/06/22 11:04:03;;;;;;;35.63;13.52;;;;;;;;;;5048190;28;20072;-88
2023/06/22 11:06:40;;;;;;;14.95;11.70;;;;;;;;;;5010720;28;20077;-85
2023/06/22 11:12:13;;;;;;;;;;;;;;;;;;;;;
2023/06/22 11:15:02;;;;;;;15.50;13.20;;;;;;;;;;5031696;28;20065;-87
2023/06/22 11:18:07;;;;;;;;;;;;;;;;;;;;;
2023/06/22 11:23:20;;;;;;;14.15;10.73;;;;;;;;;;5027693;28;20052;-87
2023/06/22 11:25:55;;;;;;;12.15;10.68;;;;;;;;;;5026325;28;20045;-86
2023/06/22 11:28:21;;;;;;;12.50;10.52;;;;;;;;;;5026486;28;20116;-86
2023/06/22 11:30:47;;;;;;;14.52;10.43;;;;;;;;;;5028279;28;20112;-86
2023/06/22 11:33:13;;;;;;;11.63;8.98;;;;;;;;;;5028921;28;20072;-86
2023/06/22 11:35:42;;;;;;;13.57;10.50;;;;;;;;;;5025153;28;20045;-88
2023/06/22 11:38:08;;;;;;;13.43;10.13;;;;;;;;;;5027387;28;20073;-87
2023/06/22 11:40:34;;;;;;;11.32;9.32;;;;;;;;;;5026114;28;20042;-87
2023/06/22 11:43:00;;;;;;;12.75;10.48;;;;;;;;;;5023281;28;20097;-86
2023/06/22 11:45:27;;;;;;;12.65;9.35;;;;;;;;;;5025319;28;20038;-86
2023/06/22 11:47:56;;;;;;;12.10;10.18;;;;;;;;;;5018756;28;20040;-87
2023/06/22 11:50:22;;;;;;;12.63;10.52;;;;;;;;;;5020177;28;20046;-85
2023/06/22 11:52:48;;;;;;;14.10;9.90;;;;;;;;;;5031303;28;20081;-87
2023/06/22 11:55:14;;;;;;;11.30;9.07;;;;;;;;;;5026474;28;20049;-85
2023/06/22 11:57:52;;;;;;;20.30;8.45;;;;;;;;;;5031295;28;20105;-88
2023/06/22 12:00:19;;;;;;;10.50;8.45;;;;;;;;;;5032192;28;20049;-85
2023/06/22 12:02:45;;;;;;;12.07;9.02;;;;;;;;;;5031748;28;20046;-85
2023/06/22 12:05:12;;;;;;;10.27;7.63;;;;;;;;;;5030583;28;20046;-86
2023/06/22 12:07:38;;;;;;;9.88;6.43;;;;;;;;;;5033108;28;20102;-85
2023/06/22 12:10:05;;;;;;;10.07;8.45;;;;;;;;;;5031383;28;20042;-86
2023/06/22 12:12:36;;;;;;;13.93;9.07;;;;;;;;;;5033750;28;20037;-87
2023/06/22 12:15:10;;;;;;;11.73;8.32;;;;;;;;;;5030571;28;20073;-88
2023/06/22 12:20:48;;;;;;;8.55;6.78;;;;;;;;;;5025207;28;20169;-88
2023/06/22 12:23:43;;;;;;;11.98;8.95;;;;;;;;;;5033979;28;20050;-87
2023/06/22 12:26:34;;;;;;;10.13;8.27;;;;;;;;;;5042663;28;20060;-88
2023/06/22 12:29:17;;;;;;;10.68;7.90;;;;;;;;;;5050373;28;20045;-87
2023/06/22 12:32:04;;;;;;;10.68;7.65;;;;;;;;;;5042263;28;20040;-88
2023/06/22 12:34:34;;;;;;;10.50;8.25;;;;;;;;;;5027322;28;20049;-87
2023/06/22 12:37:34;;;;;;;;;;;;;;;;;;;;;
2023/06/22 12:40:41;;;;;;;10.30;7.20;;;;;;;;;;5031144;28;20072;-87
2023/06/22 12:43:08;;;;;;;11.43;7.10;;;;;;;;;;5029898;28;20042;-87
2023/06/22 12:48:54;;;;;;;10.02;7.20;;;;;;;;;;5034306;28;20052;-87
2023/06/22 12:51:27;;;;;;;10.50;6.28;;;;;;;;;;5030869;28;20101;-87
2023/06/22 12:54:33;;;;;;;8.90;5.88;;;;;;;;;;5036853;28;20058;-87
2023/06/22 13:00:05;;;;;;;11.68;6.65;;;;;;;;;;5034471;28;20076;-86
2023/06/22 13:02:42;;;;;;;9.30;6.80;;;;;;;;;;5037969;28;20093;-86
2023/06/22 13:05:17;;;;;;;9.55;6.40;;;;;;;;;;5032861;28;20038;-86
2023/06/22 13:07:46;;;;;;;11.70;7.78;;;;;;;;;;5028032;28;20038;-87
2023/06/22 13:10:12;;;;;;;9.80;6.47;;;;;;;;;;5026504;28;20061;-87
2023/06/22 13:12:43;;;;;;;8.98;6.35;;;;;;;;;;5028244;28;20079;-86
2023/06/22 13:15:12;;;;;;;9.80;6.18;;;;;;;;;;5026038;28;20056;-86
2023/06/22 13:17:38;;;;;;;10.15;6.60;;;;;;;;;;5025179;28;20117;-86
2023/06/22 13:20:14;;;;;;;8.05;6.32;;;;;;;;;;5027442;28;20102;-88
2023/06/22 13:23:08;;;;;;;;;;;;;;;;;;;;;
2023/06/22 13:25:36;;;;;;;9.48;5.93;;;;;;;;;;5020679;28;20072;-87
2023/06/22 13:28:10;;;;;;;9.95;6.57;;;;;;;;;;5017940;28;20041;-87
2023/06/22 13:30:49;;;;;;;9.88;6.18;;;;;;;;;;5027923;28;20050;-85
2023/06/22 13:33:23;;;;;;;9.27;6.32;;;;;;;;;;5014187;28;20468;-85
2023/06/22 13:35:51;;;;;;;9.75;6.15;;;;;;;;;;5007483;28;20061;-85
2023/06/22 13:38:22;;;;;;;13.77;5.70;;;;;;;;;;5008586;28;20054;-87
2023/06/22 13:40:58;;;;;;;15.30;6.20;;;;;;;;;;5024354;28;20448;-87
2023/06/22 13:43:24;;;;;;;9.50;5.57;;;;;;;;;;5024496;28;20080;-87
2023/06/22 13:46:06;;;;;;;8.13;6.00;;;;;;;;;;5035641;28;20034;-86
2023/06/22 13:48:53;;;;;;;8.52;5.88;;;;;;;;;;5032245;28;20050;-87
2023/06/22 13:51:19;;;;;;;11.48;5.72;;;;;;;;;;5027223;28;20060;-86
2023/06/22 13:53:45;;;;;;;8.45;5.70;;;;;;;;;;5025560;28;20073;-86
2023/06/22 13:56:14;;;;;;;9.35;6.05;;;;;;;;;;5004983;28;20045;-85
2023/06/22 13:58:40;;;;;;;8.45;5.70;;;;;;;;;;5020090;28;20046;-86
2023/06/22 14:01:06;;;;;;;8.32;6.07;;;;;;;;;;5024742;28;20514;-86
2023/06/22 14:03:32;;;;;;;12.50;5.85;;;;;;;;;;5026583;28;20073;-87
2023/06/22 14:05:58;;;;;;;10.15;6.30;;;;;;;;;;5029402;28;20424;-86
2023/06/22 14:08:25;;;;;;;10.13;6.00;;;;;;;;;;5029249;28;20110;-87
2023/06/22 14:10:58;;;;;;;8.50;6.55;;;;;;;;;;5026120;28;20097;-87
2023/06/22 14:13:24;;;;;;;10.52;6.35;;;;;;;;;;5038794;28;20049;-86
2023/06/22 14:15:52;;;;;;;8.95;6.72;;;;;;;;;;5011751;28;20046;-85
2023/06/22 14:18:18;;;;;;;9.38;6.32;;;;;;;;;;5008101;28;20105;-85
2023/06/22 14:20:44;;;;;;;9.23;6.95;;;;;;;;;;5019420;28;20128;-86
2023/06/22 14:23:10;;;;;;;8.35;6.28;;;;;;;;;;5026119;28;20552;-85
2023/06/22 14:25:36;;;;;;;11.18;6.72;;;;;;;;;;5042095;28;20081;-84
2023/06/22 14:28:03;;;;;;;10.93;6.63;;;;;;;;;;5021823;28;20053;-85
2023/06/22 14:30:29;;;;;;;10.40;7.65;;;;;;;;;;5025524;28;20046;-87
2023/06/22 14:32:55;;;;;;;11.10;7.32;;;;;;;;;;5028163;28;20074;-86
2023/06/22 14:35:21;;;;;;;8.98;6.90;;;;;;;;;;5039296;28;20058;-87
2023/06/22 14:37:49;;;;;;;9.55;6.00;;;;;;;;;;5009228;28;20061;-86
2023/06/22 14:40:15;;;;;;;10.38;6.35;;;;;;;;;;5024696;28;20038;-85
2023/06/22 14:42:41;;;;;;;10.43;6.63;;;;;;;;;;5031351;28;20049;-85
2023/06/22 14:45:08;;;;;;;11.60;6.63;;;;;;;;;;5042816;28;20054;-87
2023/06/22 14:47:36;;;;;;;10.93;7.38;;;;;;;;;;5031083;28;20103;-87